This is the latest recevied weather packets stored in our database for station/object N2XGL-1. If no packets are shown the sender has not sent any weather packets the latest 10 day(s).
| Time | Temp. | Humidity | Pressure | Rain* | Wind** | Luminosity | Snow |
|---|---|---|---|---|---|---|---|
| 1777428539 | 12.22° C | 38% | 1013.7 hPa | 0 mm | - | - | - |
| 1777427984 | 12.22° C | 41% | 1013.5 hPa | 0 mm | - | - | - |
| 1777427419 | 12.78° C | 40% | 1013.3 hPa | 0 mm | - | - | - |
| 1777426829 | 12.78° C | 41% | 1013.4 hPa | 0 mm | - | - | - |
| 1777426299 | 13.33° C | 39% | 1013.2 hPa | 0 mm | - | - | - |
| 1777424731 | 15° C | 35% | 1012.9 hPa | 0 mm | - | - | - |
| 1777424149 | 15° C | 34% | 1012.9 hPa | 0 mm | - | - | - |
| 1777423619 | 15° C | 33% | 1012.7 hPa | 0 mm | - | - | - |
| 1777423118 | 15° C | 34% | 1012.6 hPa | 0 mm | - | - | - |
| 1777422529 | 15.56° C | 34% | 1012.3 hPa | 0 mm | - | - | - |
| 1777421469 | 15.56° C | 34% | 1012.2 hPa | 0 mm | - | - | - |
| 1777419829 | 16.11° C | 31% | 1012 hPa | 0 mm | - | - | - |
| 1777418743 | 15.56° C | 33% | 1012 hPa | 0 mm | - | - | - |
| 1777418229 | 15.56° C | 34% | 1011.9 hPa | 0 mm | - | - | - |
| 1777417714 | 16.11° C | 33% | 1011.7 hPa | 0 mm | - | - | - |
| 1777417179 | 16.11° C | 33% | 1011.8 hPa | 0 mm | - | - | - |
| 1777416079 | 15° C | 41% | 1011.8 hPa | 0 mm | - | - | - |
| 1777415569 | 15° C | 41% | 1011.7 hPa | 0 mm | - | - | - |
| 1777415049 | 15.56° C | 42% | 1011.6 hPa | 0 mm | - | - | - |
| 1777414479 | 15.56° C | 41% | 1011.6 hPa | 0 mm | - | - | - |
| 1777413898 | 15° C | 41% | 1011.9 hPa | 0 mm | - | - | - |
| 1777413399 | 14.44° C | 41% | 1012 hPa | 0 mm | - | - | - |
| 1777412804 | 13.89° C | 44% | 1012.1 hPa | 0 mm | - | - | - |
| 1777412304 | 13.89° C | 45% | 1012.2 hPa | 0 mm | - | - | - |
| 1777411791 | 13.33° C | 51% | 1012.2 hPa | 0 mm | - | - | - |
* Rain latest hour (hover to see other rain measurements)
** Current wind speed in m/s (hover to see current wind gust speed)